Time;durP1;ratioP1;P1;durP2;ratioP2;P2;SDS_P1;SDS_P2;PMS_P1;PMS_P2;Temp;Humidity;BMP_temperature;BMP_pressure;BME280_temperature;BME280_humidity;BME280_pressure;Samples;Min_cycle;Max_cycle;Signal;HPM_P1;HPM_P2
2023/12/03 00:01:15;;;;;;;38.47;16.75;;;-2.10;99.90;;;;;;6246588;28;20053;-80
2023/12/03 00:04:17;;;;;;;41.65;17.25;;;-2.00;99.90;;;;;;6247777;28;20072;-79
2023/12/03 00:07:19;;;;;;;39.72;16.58;;;-2.00;99.90;;;;;;6248326;28;20052;-79
2023/12/03 00:10:20;;;;;;;38.38;16.63;;;-1.90;99.90;;;;;;6231405;28;20081;-80
2023/12/03 00:13:22;;;;;;;41.47;17.42;;;-1.90;99.90;;;;;;6246743;28;20052;-80
2023/12/03 00:16:24;;;;;;;42.03;18.23;;;-1.80;99.90;;;;;;6266093;28;20053;-80
2023/12/03 00:19:25;;;;;;;42.10;17.30;;;-1.80;99.90;;;;;;6243381;28;20053;-80
2023/12/03 00:22:27;;;;;;;43.85;17.42;;;-1.80;99.90;;;;;;6249653;28;20102;-81
2023/12/03 00:25:29;;;;;;;37.13;16.30;;;-1.70;99.90;;;;;;6249232;28;20075;-80
2023/12/03 00:28:31;;;;;;;41.72;17.88;;;-1.60;99.90;;;;;;6257793;28;20052;-80
2023/12/03 00:31:32;;;;;;;26.73;11.27;;;-1.60;99.90;;;;;;6238569;28;20060;-80
2023/12/03 00:34:34;;;;;;;20.13;8.98;;;-1.40;99.90;;;;;;6222075;28;20049;-81
2023/12/03 00:37:36;;;;;;;19.23;8.48;;;-1.00;99.90;;;;;;6266010;28;20057;-82
2023/12/03 00:40:39;;;;;;;16.63;7.85;;;-0.30;99.90;;;;;;6255749;28;20065;-81
2023/12/03 00:43:40;;;;;;;18.48;8.30;;;0.20;99.90;;;;;;6257782;28;20068;-83
2023/12/03 00:46:42;;;;;;;20.90;8.32;;;0.60;99.90;;;;;;6258671;28;20049;-81
2023/12/03 00:49:43;;;;;;;17.77;7.65;;;0.90;99.90;;;;;;6257139;28;20053;-82
2023/12/03 00:52:46;;;;;;;19.00;8.15;;;1.00;99.90;;;;;;6246777;28;20046;-81
2023/12/03 00:55:48;;;;;;;16.63;7.85;;;1.20;99.90;;;;;;6261238;28;20076;-81
2023/12/03 00:58:50;;;;;;;15.90;7.00;;;1.30;99.90;;;;;;6265253;28;20053;-82
2023/12/03 01:01:52;;;;;;;16.05;7.70;;;1.30;99.90;;;;;;6222882;28;20081;-82
2023/12/03 01:04:54;;;;;;;18.73;7.47;;;1.30;99.90;;;;;;6223324;28;20082;-81
2023/12/03 01:07:55;;;;;;;15.93;7.85;;;1.40;99.90;;;;;;6256549;28;20421;-82
2023/12/03 01:10:57;;;;;;;18.55;7.70;;;1.40;99.90;;;;;;6240208;28;20058;-82
2023/12/03 01:13:59;;;;;;;16.58;7.60;;;1.40;99.90;;;;;;6263833;28;20074;-81
2023/12/03 01:17:00;;;;;;;15.82;7.25;;;1.40;99.90;;;;;;6230483;28;20050;-81
2023/12/03 01:20:02;;;;;;;16.33;7.10;;;1.30;99.90;;;;;;6246851;28;20057;-81
2023/12/03 01:23:04;;;;;;;14.35;7.07;;;1.30;99.90;;;;;;6254034;28;20060;-82
2023/12/03 01:26:05;;;;;;;16.98;7.47;;;1.30;99.90;;;;;;6269647;28;20064;-82
2023/12/03 01:29:07;;;;;;;15.65;7.63;;;1.30;99.90;;;;;;6255827;28;20056;-82
2023/12/03 01:32:09;;;;;;;16.02;7.22;;;1.30;99.90;;;;;;6249701;28;20759;-82
2023/12/03 01:35:10;;;;;;;15.23;7.18;;;1.30;99.90;;;;;;6258736;28;20058;-83
2023/12/03 01:38:12;;;;;;;18.65;7.57;;;1.20;99.90;;;;;;6244052;28;20527;-83
2023/12/03 01:41:13;;;;;;;13.45;6.68;;;1.30;99.90;;;;;;6252226;28;20052;-82
2023/12/03 01:44:15;;;;;;;13.90;6.85;;;1.10;99.90;;;;;;6262362;28;20148;-83
2023/12/03 01:47:17;;;;;;;13.55;6.80;;;1.00;99.90;;;;;;6233498;28;20093;-83
2023/12/03 01:50:19;;;;;;;16.00;7.30;;;0.90;99.90;;;;;;6244023;28;20497;-83
2023/12/03 01:53:20;;;;;;;16.02;7.50;;;0.80;99.90;;;;;;6268629;28;20068;-82
2023/12/03 01:56:22;;;;;;;17.67;7.60;;;0.80;99.90;;;;;;6236487;28;20046;-83
2023/12/03 01:59:24;;;;;;;14.95;7.00;;;0.80;99.90;;;;;;6258648;28;20516;-83
2023/12/03 02:02:26;;;;;;;15.43;7.18;;;0.80;99.90;;;;;;6255690;28;20049;-83
2023/12/03 02:05:29;;;;;;;15.50;7.28;;;0.80;99.90;;;;;;6248246;28;20045;-82
2023/12/03 02:08:31;;;;;;;14.15;6.30;;;0.80;99.90;;;;;;6227790;28;20057;-82
2023/12/03 02:11:32;;;;;;;13.40;7.03;;;0.80;99.90;;;;;;6259187;28;20065;-82
2023/12/03 02:14:34;;;;;;;16.92;7.65;;;0.80;99.90;;;;;;6233237;28;20057;-82
2023/12/03 02:17:36;;;;;;;17.88;7.65;;;0.80;99.90;;;;;;6266278;28;20454;-82
2023/12/03 02:20:37;;;;;;;16.38;7.70;;;0.80;99.90;;;;;;6258512;28;20062;-81
2023/12/03 02:23:39;;;;;;;18.00;7.53;;;0.90;99.90;;;;;;6233648;28;20092;-80
2023/12/03 02:26:40;;;;;;;16.45;7.40;;;0.90;99.90;;;;;;6249590;28;20158;-81
2023/12/03 02:29:42;;;;;;;15.25;7.35;;;1.10;99.90;;;;;;6217521;28;20064;-80
2023/12/03 02:32:44;;;;;;;15.00;7.30;;;1.10;99.90;;;;;;6244578;28;20056;-81
2023/12/03 02:35:45;;;;;;;16.98;7.05;;;1.20;99.90;;;;;;6234312;28;20064;-81
2023/12/03 02:38:47;;;;;;;12.85;6.75;;;1.20;99.90;;;;;;6241995;28;20053;-82
2023/12/03 02:41:49;;;;;;;15.93;7.22;;;1.20;99.90;;;;;;6247480;28;20045;-82
2023/12/03 02:44:50;;;;;;;15.23;7.07;;;1.10;99.90;;;;;;6266867;28;20670;-82
2023/12/03 02:47:52;;;;;;;14.88;6.72;;;1.20;99.90;;;;;;6259453;28;20045;-82
2023/12/03 02:50:53;;;;;;;16.35;6.95;;;1.20;99.90;;;;;;6262742;28;20073;-83
2023/12/03 02:53:55;;;;;;;13.15;6.45;;;1.20;99.90;;;;;;6270900;28;20511;-84
2023/12/03 02:56:57;;;;;;;13.38;6.13;;;1.20;99.90;;;;;;6244505;28;20107;-83
2023/12/03 02:59:58;;;;;;;18.23;7.00;;;1.30;99.90;;;;;;6252316;28;20053;-84
2023/12/03 03:03:00;;;;;;;14.77;6.63;;;1.20;99.90;;;;;;6239587;28;20192;-84
2023/12/03 03:06:02;;;;;;;13.50;6.53;;;1.30;99.90;;;;;;6254926;28;20440;-83
2023/12/03 03:09:03;;;;;;;15.30;6.82;;;1.30;99.90;;;;;;6237990;28;20070;-84
2023/12/03 03:12:05;;;;;;;13.77;6.20;;;1.30;99.90;;;;;;6223882;28;20049;-84
2023/12/03 03:15:07;;;;;;;12.98;5.43;;;1.40;99.90;;;;;;6249900;28;20056;-84
2023/12/03 03:18:08;;;;;;;13.07;5.10;;;1.50;99.90;;;;;;6242803;28;20064;-84
2023/12/03 03:21:10;;;;;;;11.95;4.88;;;1.60;99.90;;;;;;6245012;28;20054;-84
2023/12/03 03:24:12;;;;;;;13.18;4.20;;;1.70;99.90;;;;;;6274711;28;20053;-84
2023/12/03 03:27:13;;;;;;;8.15;3.60;;;2.00;99.90;;;;;;6273685;28;20113;-83
2023/12/03 03:30:15;;;;;;;9.10;3.70;;;2.30;99.90;;;;;;6242359;28;20059;-83
2023/12/03 03:33:16;;;;;;;8.50;3.22;;;2.40;99.90;;;;;;6233395;28;20401;-83
2023/12/03 03:36:18;;;;;;;8.45;3.33;;;2.60;99.90;;;;;;6248747;28;20183;-84
2023/12/03 03:39:20;;;;;;;7.65;3.03;;;2.80;99.90;;;;;;6247937;28;20057;-82
2023/12/03 03:42:22;;;;;;;8.80;3.17;;;3.00;99.90;;;;;;6240350;28;20054;-84
2023/12/03 03:45:23;;;;;;;8.35;3.15;;;3.30;96.80;;;;;;6249298;28;20052;-82
2023/12/03 03:48:25;;;;;;;7.47;3.20;;;3.30;97.80;;;;;;6242043;28;20045;-83
2023/12/03 03:51:27;;;;;;;8.15;2.88;;;3.40;97.80;;;;;;6254602;28;20050;-83
2023/12/03 03:54:29;;;;;;;8.63;2.92;;;3.30;99.90;;;;;;6238518;28;20046;-84
2023/12/03 03:57:31;;;;;;;7.63;3.08;;;3.20;99.90;;;;;;6246958;28;20087;-83
2023/12/03 04:00:33;;;;;;;9.32;3.53;;;3.20;99.90;;;;;;6247897;28;20080;-84
2023/12/03 04:03:34;;;;;;;9.77;2.85;;;3.20;99.90;;;;;;6229149;28;20409;-82
2023/12/03 04:06:36;;;;;;;7.72;3.00;;;3.30;99.40;;;;;;6225721;28;20057;-83
2023/12/03 04:09:38;;;;;;;7.78;3.15;;;3.40;99.90;;;;;;6247429;28;20265;-84
2023/12/03 04:12:41;;;;;;;11.27;3.30;;;3.20;99.90;;;;;;6265950;28;20463;-84
2023/12/03 04:15:43;;;;;;;7.45;2.90;;;3.20;99.90;;;;;;6270984;28;20687;-83
2023/12/03 04:18:45;;;;;;;10.20;3.22;;;3.40;99.70;;;;;;6271972;28;20059;-84
2023/12/03 04:21:46;;;;;;;8.77;2.92;;;3.50;98.70;;;;;;6247958;28;20076;-83
2023/12/03 04:24:48;;;;;;;8.63;3.05;;;3.60;98.00;;;;;;6271278;28;20057;-85
2023/12/03 04:27:50;;;;;;;8.63;2.97;;;3.60;97.10;;;;;;6249511;28;20131;-83
2023/12/03 04:30:51;;;;;;;9.20;3.22;;;3.70;95.70;;;;;;6274809;28;20052;-85
2023/12/03 04:33:55;;;;;;;7.82;2.90;;;3.70;96.80;;;;;;6239977;28;20046;-84
2023/12/03 04:36:57;;;;;;;11.95;3.08;;;3.70;96.80;;;;;;6287997;28;20490;-85
2023/12/03 04:39:59;;;;;;;8.95;2.90;;;3.80;98.40;;;;;;6248644;28;20060;-85
2023/12/03 04:43:00;;;;;;;7.45;2.65;;;3.80;97.40;;;;;;6266876;28;20056;-83
2023/12/03 04:46:02;;;;;;;11.55;3.00;;;3.80;97.70;;;;;;6248343;28;20052;-85
2023/12/03 04:49:04;;;;;;;7.70;2.88;;;3.90;97.20;;;;;;6272351;28;20057;-84
2023/12/03 04:52:05;;;;;;;9.35;2.97;;;3.90;97.10;;;;;;6248570;28;20496;-84
2023/12/03 04:55:07;;;;;;;8.45;3.10;;;3.90;98.60;;;;;;6271798;28;20530;-83
2023/12/03 04:58:09;;;;;;;7.82;2.78;;;3.90;99.80;;;;;;6262797;28;20057;-85
2023/12/03 05:01:12;;;;;;;9.00;2.90;;;3.90;99.90;;;;;;6267414;28;20049;-84
2023/12/03 05:04:18;;;;;;;6.35;2.78;;;3.80;99.90;;;;;;6247958;28;20057;-84
2023/12/03 05:07:19;;;;;;;6.88;2.88;;;3.80;99.90;;;;;;6248015;28;20405;-83
2023/12/03 05:10:21;;;;;;;8.20;3.05;;;3.90;99.90;;;;;;6272364;28;20071;-84
2023/12/03 05:13:23;;;;;;;8.50;2.95;;;3.90;99.90;;;;;;6255800;28;20123;-84
2023/12/03 05:16:25;;;;;;;9.43;3.42;;;3.80;99.90;;;;;;6248895;28;20068;-85
2023/12/03 05:19:26;;;;;;;10.55;3.60;;;3.80;99.90;;;;;;6271505;28;20053;-84
2023/12/03 05:22:29;;;;;;;8.40;3.22;;;3.90;99.90;;;;;;6249009;28;20053;-86
2023/12/03 05:25:30;;;;;;;8.23;3.30;;;3.90;99.90;;;;;;6269023;28;20179;-84
2023/12/03 05:28:32;;;;;;;6.95;3.25;;;3.90;99.90;;;;;;6251910;28;20052;-84
2023/12/03 05:31:34;;;;;;;7.57;3.10;;;3.90;99.90;;;;;;6248341;28;20150;-86
2023/12/03 05:34:36;;;;;;;8.68;3.08;;;3.90;99.90;;;;;;6272298;28;20056;-86
2023/12/03 05:37:38;;;;;;;8.82;3.38;;;3.90;99.90;;;;;;6248356;28;20509;-86
2023/12/03 05:40:39;;;;;;;7.70;3.50;;;3.80;99.90;;;;;;6256485;28;20077;-85
2023/12/03 05:43:41;;;;;;;10.82;3.70;;;3.80;99.90;;;;;;6254316;28;20143;-85
2023/12/03 05:46:42;;;;;;;8.05;3.55;;;3.80;99.90;;;;;;6247600;28;20049;-84
2023/12/03 05:49:44;;;;;;;12.05;3.65;;;3.80;99.90;;;;;;6229081;28;20057;-86
2023/12/03 05:52:46;;;;;;;10.23;4.05;;;3.80;99.90;;;;;;6261251;28;20136;-86
2023/12/03 05:55:48;;;;;;;11.27;3.92;;;3.80;99.90;;;;;;6266643;28;20049;-86
2023/12/03 05:58:49;;;;;;;10.95;3.50;;;3.90;99.90;;;;;;6250794;28;20060;-85
2023/12/03 06:01:51;;;;;;;13.23;4.25;;;3.80;99.90;;;;;;6272416;28;20503;-85
2023/12/03 06:04:53;;;;;;;11.15;3.97;;;3.80;99.90;;;;;;6246761;28;20057;-85
2023/12/03 06:07:55;;;;;;;9.60;3.80;;;3.90;99.90;;;;;;6246364;28;20682;-83
2023/12/03 06:10:57;;;;;;;9.90;3.75;;;3.80;99.90;;;;;;6271191;28;20075;-85
2023/12/03 06:13:58;;;;;;;11.18;4.03;;;3.90;99.90;;;;;;6255001;28;20055;-85
2023/12/03 06:17:00;;;;;;;14.30;4.10;;;4.00;99.90;;;;;;6246624;28;20103;-84
2023/12/03 06:20:02;;;;;;;13.65;4.60;;;3.90;99.90;;;;;;6272131;28;20059;-85
2023/12/03 06:23:03;;;;;;;9.35;3.97;;;3.90;99.90;;;;;;6248383;28;20548;-84
2023/12/03 06:26:06;;;;;;;12.40;4.00;;;4.00;99.90;;;;;;6271887;28;20060;-84
2023/12/03 06:29:08;;;;;;;11.50;4.00;;;3.90;99.90;;;;;;6258924;28;20134;-85
2023/12/03 06:32:09;;;;;;;8.93;4.03;;;4.10;99.90;;;;;;6248082;28;20057;-86
2023/12/03 06:35:14;;;;;;;10.63;4.25;;;4.10;99.90;;;;;;6272689;28;20136;-85
2023/12/03 06:38:15;;;;;;;10.48;4.22;;;4.00;99.90;;;;;;6247593;28;20056;-85
2023/12/03 06:41:17;;;;;;;10.35;4.00;;;4.00;99.90;;;;;;6270805;28;20049;-86
2023/12/03 06:44:19;;;;;;;10.15;4.03;;;4.00;99.90;;;;;;6246075;28;20053;-86
2023/12/03 06:47:38;;;;;;;12.20;3.88;;;4.00;99.90;;;;;;6229253;28;20191;-85
2023/12/03 06:50:40;;;;;;;12.15;3.58;;;4.00;99.90;;;;;;6271085;28;20214;-85
2023/12/03 06:53:46;;;;;;;10.57;3.78;;;4.10;99.90;;;;;;6239060;28;20049;-86
2023/12/03 06:56:48;;;;;;;11.98;3.92;;;4.00;99.90;;;;;;6255698;28;20065;-85
2023/12/03 06:59:49;;;;;;;11.05;4.03;;;4.00;99.90;;;;;;6246285;28;20061;-85
2023/12/03 07:02:51;;;;;;;13.02;3.72;;;4.00;99.90;;;;;;6268201;28;20496;-87
2023/12/03 07:05:54;;;;;;;10.32;3.83;;;4.00;99.90;;;;;;6254853;28;20057;-87
2023/12/03 07:08:56;;;;;;;9.45;3.95;;;4.10;99.90;;;;;;6251030;28;20128;-90
2023/12/03 07:11:57;;;;;;;9.38;3.85;;;4.10;99.90;;;;;;6268200;28;20056;-86
2023/12/03 07:14:59;;;;;;;15.35;3.65;;;4.20;99.90;;;;;;6270280;28;20155;-87
2023/12/03 07:18:01;;;;;;;10.60;3.83;;;4.10;99.90;;;;;;6248681;28;20053;-87
2023/12/03 07:21:02;;;;;;;13.05;3.90;;;4.10;99.90;;;;;;6271442;28;20048;-87
2023/12/03 07:24:04;;;;;;;10.43;3.80;;;4.10;99.90;;;;;;6249189;28;20500;-88
2023/12/03 07:27:06;;;;;;;14.38;4.13;;;4.20;99.90;;;;;;6269609;28;20052;-84
2023/12/03 07:30:08;;;;;;;12.40;3.90;;;4.20;99.90;;;;;;6266367;28;20045;-85
2023/12/03 07:33:09;;;;;;;14.07;4.70;;;4.30;99.90;;;;;;6269402;28;20044;-85
2023/12/03 07:36:11;;;;;;;12.50;4.45;;;4.30;99.90;;;;;;6245679;28;20049;-85
2023/12/03 07:39:13;;;;;;;14.90;4.25;;;4.40;99.90;;;;;;6268375;28;20064;-85
2023/12/03 07:42:17;;;;;;;12.00;4.43;;;4.40;99.90;;;;;;6244564;28;20060;-86
2023/12/03 07:45:19;;;;;;;15.15;4.63;;;4.40;99.90;;;;;;6268175;28;20060;-85
2023/12/03 07:48:23;;;;;;;15.70;4.50;;;4.50;99.90;;;;;;6218320;28;20096;-86
2023/12/03 07:51:25;;;;;;;15.85;4.45;;;4.60;99.90;;;;;;6268589;28;20141;-86
2023/12/03 07:54:27;;;;;;;14.05;4.93;;;4.60;99.90;;;;;;6245887;28;20045;-86
2023/12/03 07:57:28;;;;;;;16.55;4.70;;;4.60;99.90;;;;;;6249338;28;20065;-86
2023/12/03 08:00:30;;;;;;;11.25;4.63;;;4.60;99.90;;;;;;6238327;28;20061;-84
2023/12/03 08:03:32;;;;;;;15.52;5.03;;;4.70;99.90;;;;;;6224236;28;20136;-87
2023/12/03 08:06:34;;;;;;;16.38;5.05;;;4.70;99.90;;;;;;6270448;28;20056;-85
2023/12/03 08:09:36;;;;;;;17.55;4.80;;;4.70;99.90;;;;;;6247165;28;20091;-83
2023/12/03 08:12:38;;;;;;;17.33;4.70;;;4.80;99.90;;;;;;6268211;28;20079;-87
2023/12/03 08:15:39;;;;;;;13.10;4.65;;;4.80;99.90;;;;;;6247827;28;20049;-85
2023/12/03 08:18:42;;;;;;;12.52;4.78;;;4.90;99.90;;;;;;6232832;28;20061;-85
2023/12/03 08:21:47;;;;;;;17.67;4.75;;;4.90;99.90;;;;;;6273223;28;20052;-85
2023/12/03 08:24:52;;;;;;;14.73;4.57;;;4.90;99.90;;;;;;6246608;28;20508;-84
2023/12/03 08:27:54;;;;;;;14.50;5.22;;;5.00;99.90;;;;;;6259696;28;20045;-91
2023/12/03 08:30:56;;;;;;;15.63;5.30;;;5.00;99.90;;;;;;6273297;28;20050;-92
2023/12/03 08:33:57;;;;;;;21.35;4.43;;;5.10;99.90;;;;;;6289144;28;20049;-86
2023/12/03 08:36:59;;;;;;;20.23;5.25;;;5.10;99.90;;;;;;6263131;28;20057;-86
2023/12/03 08:40:01;;;;;;;16.90;5.40;;;5.10;99.90;;;;;;6291998;28;20073;-88
2023/12/03 08:43:03;;;;;;;16.10;4.88;;;5.20;99.90;;;;;;6275950;28;20049;-88
2023/12/03 08:46:04;;;;;;;15.98;5.25;;;5.20;99.90;;;;;;6294976;28;20037;-88
2023/12/03 08:49:06;;;;;;;16.90;5.18;;;5.20;99.90;;;;;;6267562;28;20057;-88
2023/12/03 08:52:08;;;;;;;15.10;4.63;;;5.30;99.90;;;;;;6273019;28;20060;-89
2023/12/03 08:55:10;;;;;;;18.45;4.65;;;5.40;99.90;;;;;;6251985;28;20064;-90
2023/12/03 08:58:12;;;;;;;20.90;5.43;;;5.50;99.90;;;;;;6263005;28;20172;-89
2023/12/03 09:01:13;;;;;;;21.67;5.03;;;5.50;99.90;;;;;;6248381;28;20050;-89
2023/12/03 09:04:15;;;;;;;18.80;5.47;;;5.50;99.90;;;;;;6251672;28;20065;-90
2023/12/03 09:07:17;;;;;;;18.52;5.45;;;5.60;99.90;;;;;;6267370;28;20568;-90
2023/12/03 09:10:19;;;;;;;14.80;5.30;;;5.60;99.90;;;;;;6258088;28;20061;-90
2023/12/03 09:13:21;;;;;;;15.63;5.20;;;5.70;99.90;;;;;;6258334;28;20414;-91
2023/12/03 09:16:22;;;;;;;17.75;5.35;;;5.80;99.90;;;;;;6258642;28;20789;-92
2023/12/03 09:19:24;;;;;;;21.80;5.70;;;5.90;99.90;;;;;;6252674;28;20056;-92
2023/12/03 09:22:26;;;;;;;15.98;5.60;;;5.90;99.90;;;;;;6256360;28;20053;-80
2023/12/03 09:25:27;;;;;;;15.77;5.15;;;6.00;99.90;;;;;;6263900;28;20412;-79
2023/12/03 09:28:30;;;;;;;18.33;5.90;;;6.10;99.90;;;;;;6235568;28;20056;-80
2023/12/03 09:31:31;;;;;;;19.25;5.75;;;6.10;99.90;;;;;;6245274;28;20120;-81
2023/12/03 09:34:33;;;;;;;15.13;5.18;;;6.10;99.90;;;;;;6243582;28;20056;-91
2023/12/03 09:37:35;;;;;;;19.77;6.22;;;6.20;99.90;;;;;;6253001;28;20385;-92
2023/12/03 09:40:36;;;;;;;15.85;5.82;;;6.30;99.90;;;;;;6277637;28;20056;-90
2023/12/03 09:43:38;;;;;;;17.98;5.68;;;6.30;99.90;;;;;;6261779;28;20048;-90
2023/12/03 09:46:40;;;;;;;19.20;6.25;;;6.40;99.90;;;;;;6253272;28;20053;-94
2023/12/03 09:49:42;;;;;;;19.42;6.25;;;6.50;99.90;;;;;;6277747;28;20562;-90
2023/12/03 09:52:43;;;;;;;15.65;5.82;;;6.50;99.90;;;;;;6252875;28;20056;-90
2023/12/03 09:55:45;;;;;;;16.98;6.47;;;6.50;99.90;;;;;;6271231;28;20054;-90
2023/12/03 09:58:47;;;;;;;19.20;6.55;;;6.60;99.90;;;;;;6262144;28;20065;-92
2023/12/03 10:01:49;;;;;;;18.38;7.18;;;6.60;99.90;;;;;;6280074;28;20095;-91
2023/12/03 10:04:50;;;;;;;19.70;6.43;;;6.80;99.90;;;;;;6262079;28;20056;-91
2023/12/03 10:07:52;;;;;;;23.10;7.25;;;6.80;99.90;;;;;;6283357;28;20045;-90
2023/12/03 10:10:54;;;;;;;17.08;6.25;;;6.90;99.90;;;;;;6260554;28;20141;-91
2023/12/03 10:14:01;;;;;;;20.15;6.65;;;7.00;99.90;;;;;;6270222;28;20049;-89
2023/12/03 10:17:03;;;;;;;19.15;6.85;;;7.00;99.90;;;;;;6283057;28;20089;-90
2023/12/03 10:20:05;;;;;;;16.52;6.15;;;7.20;99.90;;;;;;6257027;28;20049;-90
2023/12/03 10:23:07;;;;;;;19.42;6.28;;;7.30;99.90;;;;;;6282973;28;20060;-90
2023/12/03 10:26:08;;;;;;;17.42;5.95;;;7.30;99.90;;;;;;6257793;28;20112;-89
2023/12/03 10:29:10;;;;;;;19.60;6.10;;;7.40;99.90;;;;;;6269087;28;20041;-90
2023/12/03 10:32:12;;;;;;;17.42;6.30;;;7.50;99.90;;;;;;6285852;28;20057;-90
2023/12/03 10:35:14;;;;;;;16.23;5.97;;;7.50;99.90;;;;;;6257441;28;20049;-89
2023/12/03 10:38:18;;;;;;;15.45;5.72;;;7.60;99.90;;;;;;6276284;28;20056;-90
2023/12/03 10:41:20;;;;;;;19.63;5.32;;;7.70;99.90;;;;;;6250911;28;20421;-91
2023/12/03 10:44:24;;;;;;;17.35;4.95;;;7.70;99.90;;;;;;6273795;28;20063;-89
2023/12/03 10:47:25;;;;;;;10.95;4.78;;;7.80;99.90;;;;;;6250141;28;20056;-90
2023/12/03 10:50:27;;;;;;;15.65;5.25;;;7.80;99.90;;;;;;6279288;28;20136;-91
2023/12/03 10:53:29;;;;;;;16.50;4.85;;;7.90;99.90;;;;;;6253817;28;20072;-90
2023/12/03 10:56:31;;;;;;;13.27;4.40;;;7.90;99.90;;;;;;6264853;28;20061;-89
2023/12/03 10:59:33;;;;;;;9.15;4.55;;;7.90;99.90;;;;;;6245007;28;20056;-90
2023/12/03 11:02:35;;;;;;;9.73;4.20;;;7.80;99.90;;;;;;6274572;28;20564;-89
2023/12/03 11:05:37;;;;;;;12.20;4.30;;;7.80;99.90;;;;;;6250657;28;20080;-89
2023/12/03 11:08:38;;;;;;;13.90;4.07;;;7.80;99.90;;;;;;6273709;28;20044;-88
2023/12/03 11:11:40;;;;;;;9.48;3.67;;;7.70;99.90;;;;;;6251058;28;20057;-89
2023/12/03 11:14:42;;;;;;;12.30;3.80;;;7.60;99.90;;;;;;6271067;28;20057;-89
2023/12/03 11:17:44;;;;;;;11.27;3.88;;;7.60;99.90;;;;;;6248959;28;20064;-88
2023/12/03 11:20:46;;;;;;;11.13;3.70;;;7.50;99.90;;;;;;6267335;28;20056;-84
2023/12/03 11:23:47;;;;;;;10.57;3.75;;;7.50;99.90;;;;;;6245550;28;20103;-81
2023/12/03 11:26:49;;;;;;;10.77;3.80;;;7.60;99.90;;;;;;6270451;28;20134;-86
2023/12/03 11:29:51;;;;;;;9.60;3.72;;;7.60;99.90;;;;;;6249464;28;20080;-88
2023/12/03 11:32:54;;;;;;;11.27;3.65;;;7.60;99.90;;;;;;6261178;28;20053;-90
2023/12/03 11:35:56;;;;;;;10.43;3.80;;;7.60;99.90;;;;;;6274331;28;20454;-89
2023/12/03 11:38:58;;;;;;;8.77;3.33;;;7.60;99.90;;;;;;6250831;28;20055;-90
2023/12/03 11:42:00;;;;;;;9.98;3.63;;;7.70;99.90;;;;;;6273094;28;20056;-90
2023/12/03 11:45:02;;;;;;;9.90;3.45;;;7.60;99.90;;;;;;6245833;28;20056;-89
2023/12/03 11:48:04;;;;;;;10.73;3.70;;;7.70;99.90;;;;;;6256605;28;20044;-91
2023/12/03 11:51:06;;;;;;;8.93;3.60;;;7.70;99.90;;;;;;6246940;28;20052;-87
2023/12/03 11:54:08;;;;;;;7.90;3.13;;;7.70;99.90;;;;;;6244812;28;20252;-80
2023/12/03 11:57:09;;;;;;;11.13;2.80;;;7.80;99.90;;;;;;6267994;28;20064;-79
2023/12/03 12:00:11;;;;;;;6.65;2.40;;;7.80;99.90;;;;;;6240754;28;20046;-88
2023/12/03 12:03:13;;;;;;;8.98;2.60;;;7.90;99.90;;;;;;6269683;28;20041;-87
2023/12/03 12:06:14;;;;;;;8.60;2.78;;;8.00;99.90;;;;;;6245050;28;20076;-88
2023/12/03 12:09:16;;;;;;;8.80;2.90;;;8.00;99.90;;;;;;6268423;28;20093;-89
2023/12/03 12:12:18;;;;;;;6.93;2.42;;;8.10;99.90;;;;;;6245664;28;20179;-87
2023/12/03 12:15:20;;;;;;;5.53;1.90;;;8.00;99.90;;;;;;6266908;28;20098;-87
2023/12/03 12:18:23;;;;;;;6.47;1.90;;;8.20;99.90;;;;;;6221526;28;20072;-87
2023/12/03 12:21:25;;;;;;;5.97;1.90;;;8.20;99.90;;;;;;6285635;28;20065;-88
2023/12/03 12:24:27;;;;;;;7.65;2.00;;;8.30;99.90;;;;;;6247293;28;20077;-88
2023/12/03 12:27:29;;;;;;;7.80;1.80;;;8.30;99.90;;;;;;6266761;28;20136;-87
2023/12/03 12:30:33;;;;;;;6.72;1.80;;;8.30;99.90;;;;;;6247318;28;20049;-87
2023/12/03 12:33:36;;;;;;;5.82;1.90;;;8.30;99.90;;;;;;6224817;28;20064;-87
2023/12/03 12:36:40;;;;;;;5.13;1.90;;;8.40;99.90;;;;;;6291714;28;20053;-87
2023/12/03 12:39:42;;;;;;;9.48;2.13;;;8.30;99.90;;;;;;6252385;28;20077;-88
2023/12/03 12:42:44;;;;;;;5.90;2.00;;;8.30;99.90;;;;;;6269635;28;20058;-87
2023/12/03 12:45:45;;;;;;;6.60;1.90;;;8.30;99.90;;;;;;6252516;28;20060;-88
2023/12/03 12:48:47;;;;;;;5.78;2.13;;;8.30;99.90;;;;;;6276252;28;20048;-88
2023/12/03 12:51:49;;;;;;;7.18;1.75;;;8.30;99.90;;;;;;6252207;28;20049;-88
2023/12/03 12:54:51;;;;;;;4.18;1.50;;;8.30;99.90;;;;;;6253913;28;20048;-87
2023/12/03 12:57:53;;;;;;;5.15;1.83;;;8.30;99.90;;;;;;6266745;28;20052;-88
2023/12/03 13:00:54;;;;;;;4.50;1.70;;;8.30;99.90;;;;;;6252265;28;20049;-88
2023/12/03 13:03:56;;;;;;;5.97;1.70;;;8.30;99.90;;;;;;6275848;28;20075;-87
2023/12/03 13:06:58;;;;;;;6.05;1.70;;;8.30;99.90;;;;;;6252281;28;20225;-87
2023/12/03 13:10:00;;;;;;;7.13;1.80;;;8.30;99.90;;;;;;6275378;28;20056;-88
2023/12/03 13:13:02;;;;;;;8.68;2.53;;;8.30;99.90;;;;;;6257308;28;20378;-87
2023/12/03 13:16:03;;;;;;;7.78;2.00;;;8.20;99.90;;;;;;6276735;28;20526;-87
2023/12/03 13:19:05;;;;;;;5.75;1.70;;;8.20;99.90;;;;;;6251533;28;20480;-86
2023/12/03 13:22:07;;;;;;;6.47;1.77;;;8.20;99.90;;;;;;6274937;28;20076;-85
2023/12/03 13:25:09;;;;;;;7.85;2.22;;;8.10;99.90;;;;;;6250410;28;20053;-86
2023/12/03 13:28:10;;;;;;;7.50;2.22;;;8.10;99.90;;;;;;6264133;28;20049;-85
2023/12/03 13:31:12;;;;;;;6.18;1.83;;;8.00;99.90;;;;;;6274997;28;20147;-86
2023/12/03 13:34:14;;;;;;;8.25;2.35;;;8.00;99.90;;;;;;6251450;28;20055;-87
2023/12/03 13:37:15;;;;;;;9.48;2.28;;;8.00;99.90;;;;;;6277338;28;20057;-87
2023/12/03 13:40:18;;;;;;;8.93;2.28;;;8.00;99.90;;;;;;6251805;28;20132;-89
2023/12/03 13:43:19;;;;;;;6.72;2.10;;;8.00;99.90;;;;;;6260876;28;20052;-86
2023/12/03 13:46:21;;;;;;;5.15;2.17;;;8.00;99.90;;;;;;6275745;28;20053;-87
2023/12/03 13:49:22;;;;;;;6.50;2.25;;;8.00;99.90;;;;;;6255582;28;20056;-87
2023/12/03 13:52:24;;;;;;;7.05;2.25;;;8.00;99.90;;;;;;6282347;28;20120;-87
2023/12/03 13:55:26;;;;;;;11.80;2.55;;;8.10;99.90;;;;;;6290353;28;20045;-88
2023/12/03 13:58:28;;;;;;;7.95;1.90;;;8.20;99.90;;;;;;6265130;28;20126;-88
2023/12/03 14:01:29;;;;;;;12.90;2.28;;;8.30;99.90;;;;;;6251874;28;20428;-87
2023/12/03 14:04:32;;;;;;;6.20;2.03;;;8.30;99.90;;;;;;6275180;28;20124;-86
2023/12/03 14:07:34;;;;;;;8.80;1.85;;;8.30;99.90;;;;;;6251145;28;20064;-87
2023/12/03 14:10:36;;;;;;;7.00;1.98;;;8.30;99.90;;;;;;6274293;28;20451;-88
2023/12/03 14:13:38;;;;;;;7.15;2.30;;;8.30;99.90;;;;;;6260589;28;20057;-87
2023/12/03 14:16:39;;;;;;;8.38;2.03;;;8.40;99.90;;;;;;6249938;28;20080;-86
2023/12/03 14:19:41;;;;;;;6.40;1.83;;;8.40;99.90;;;;;;6274800;28;20052;-87
2023/12/03 14:22:43;;;;;;;8.43;1.80;;;8.40;99.90;;;;;;6249755;28;20092;-87
2023/12/03 14:25:44;;;;;;;5.72;1.70;;;8.50;99.90;;;;;;6274340;28;20080;-87
2023/12/03 14:28:46;;;;;;;5.50;1.70;;;8.50;99.90;;;;;;6261865;28;20139;-87
2023/12/03 14:31:48;;;;;;;7.72;2.00;;;8.50;99.90;;;;;;6249920;28;20147;-88
2023/12/03 14:34:49;;;;;;;9.75;1.88;;;8.40;99.90;;;;;;6275200;28;20821;-88
2023/12/03 14:37:51;;;;;;;5.20;1.50;;;8.50;99.90;;;;;;6249624;28;20489;-86
2023/12/03 14:40:54;;;;;;;8.45;1.83;;;8.40;99.90;;;;;;6273357;28;20060;-86
2023/12/03 14:43:56;;;;;;;7.55;1.70;;;8.30;99.90;;;;;;6260535;28;20053;-87
2023/12/03 14:46:58;;;;;;;4.20;1.23;;;8.30;99.90;;;;;;6249284;28;20623;-87
2023/12/03 14:49:59;;;;;;;6.13;1.23;;;8.30;99.90;;;;;;6272881;28;20048;-85
2023/12/03 14:53:01;;;;;;;5.50;1.25;;;8.30;99.90;;;;;;6247539;28;20056;-88
2023/12/03 14:56:03;;;;;;;5.80;1.40;;;8.20;99.90;;;;;;6263030;28;20119;-88
2023/12/03 14:59:06;;;;;;;6.13;1.30;;;8.20;99.90;;;;;;6256341;28;20531;-88
2023/12/03 15:02:07;;;;;;;6.47;1.48;;;8.20;99.90;;;;;;6271962;28;20415;-87
2023/12/03 15:05:09;;;;;;;8.23;1.80;;;8.20;99.90;;;;;;6247838;28;20393;-87
2023/12/03 15:08:11;;;;;;;9.30;2.13;;;8.20;99.90;;;;;;6272329;28;20045;-86
2023/12/03 15:11:13;;;;;;;7.53;1.77;;;8.20;99.90;;;;;;6248295;28;20682;-86
2023/12/03 15:14:14;;;;;;;7.90;1.50;;;8.20;99.90;;;;;;6268666;28;20057;-87
2023/12/03 15:17:16;;;;;;;8.98;2.20;;;8.20;99.90;;;;;;6248142;28;20499;-87
2023/12/03 15:20:17;;;;;;;8.18;1.90;;;8.10;99.90;;;;;;6273024;28;20164;-85
2023/12/03 15:23:20;;;;;;;8.30;1.80;;;8.10;99.90;;;;;;6248410;28;20060;-88
2023/12/03 15:26:21;;;;;;;10.95;2.58;;;8.00;99.90;;;;;;6272232;28;20053;-88
2023/12/03 15:29:24;;;;;;;7.68;1.83;;;8.00;99.90;;;;;;6246346;28;20054;-88
2023/12/03 15:32:28;;;;;;;9.38;1.90;;;8.00;99.90;;;;;;6271649;28;20056;-87
2023/12/03 15:35:29;;;;;;;9.07;2.10;;;7.90;99.90;;;;;;6248125;28;20556;-88
2023/12/03 15:38:31;;;;;;;10.50;1.85;;;7.90;99.90;;;;;;6272093;28;20049;-86
2023/12/03 15:41:33;;;;;;;9.48;1.83;;;7.90;99.90;;;;;;6249109;28;20053;-88
2023/12/03 15:44:35;;;;;;;9.13;1.77;;;7.90;99.90;;;;;;6268204;28;20449;-87
2023/12/03 15:47:37;;;;;;;9.20;2.20;;;8.00;99.90;;;;;;6246388;28;20056;-87
2023/12/03 15:50:41;;;;;;;9.35;1.83;;;8.00;99.90;;;;;;6271569;28;20053;-88